createdAt,value
2023-05-15T00:02:02.301Z,101373.50
2023-05-15T00:04:29.202Z,101370.81
2023-05-15T00:06:56.158Z,101369.34
2023-05-15T00:09:23.094Z,101365.47
2023-05-15T00:11:51.411Z,101360.59
2023-05-15T00:14:18.963Z,101356.44
2023-05-15T00:16:45.826Z,101346.84
2023-05-15T00:19:12.823Z,101355.66
2023-05-15T00:21:39.802Z,101329.53
2023-05-15T00:24:06.685Z,101345.31
2023-05-15T00:26:33.645Z,101349.34
2023-05-15T00:29:00.695Z,101343.16
2023-05-15T00:31:27.568Z,101346.88
2023-05-15T00:33:54.479Z,101336.34
2023-05-15T00:36:22.299Z,101336.44
2023-05-15T00:38:49.102Z,101329.34
2023-05-15T00:41:16.838Z,101339.13
2023-05-15T00:43:44.125Z,101338.13
2023-05-15T00:46:13.458Z,101328.72
2023-05-15T00:48:42.302Z,101325.81
2023-05-15T00:51:10.062Z,101312.41
2023-05-15T00:53:38.865Z,101322.13
2023-05-15T00:56:07.263Z,101334.44
2023-05-15T00:58:34.466Z,101324.78
2023-05-15T01:01:01.283Z,101317.56
2023-05-15T01:03:28.979Z,101325.38
2023-05-15T01:05:56.131Z,101328.09
2023-05-15T01:08:50.015Z,101322.41
2023-05-15T01:11:18.043Z,101324.34
2023-05-15T01:13:45.037Z,101317.03
2023-05-15T01:16:12.150Z,101332.25
2023-05-15T01:18:39.110Z,101316.09
2023-05-15T01:21:38.606Z,101312.66
2023-05-15T01:24:23.657Z,101309.72
2023-05-15T01:27:02.384Z,101316.38
2023-05-15T01:29:42.899Z,101306.34
2023-05-15T01:32:19.142Z,101309.97
2023-05-15T01:34:58.243Z,101314.31
2023-05-15T01:37:28.829Z,101305.94
2023-05-15T01:40:02.729Z,101308.38
2023-05-15T01:42:36.346Z,101305.47
2023-05-15T01:45:08.432Z,101309.69
2023-05-15T01:47:46.764Z,101304.34
2023-05-15T01:50:16.232Z,101310.50
2023-05-15T01:52:50.960Z,101311.72
2023-05-15T01:55:20.832Z,101301.53
2023-05-15T01:57:50.614Z,101301.53
2023-05-15T02:00:18.748Z,101299.25
2023-05-15T02:02:47.199Z,101294.38
2023-05-15T02:05:15.016Z,101303.63
2023-05-15T02:07:46.054Z,101305.97
2023-05-15T02:10:13.559Z,101294.16
2023-05-15T02:12:41.906Z,101284.25
2023-05-15T02:15:10.822Z,101294.19
2023-05-15T02:17:38.446Z,101289.94
2023-05-15T02:20:08.835Z,101269.00
2023-05-15T02:22:36.030Z,101294.59
2023-05-15T02:25:06.061Z,101295.97
2023-05-15T02:27:55.266Z,101277.50
2023-05-15T02:31:09.570Z,101292.31
2023-05-15T02:33:46.666Z,101287.25
2023-05-15T02:36:21.020Z,101272.19
2023-05-15T02:38:50.839Z,101286.88
2023-05-15T02:41:18.503Z,101277.34
2023-05-15T02:43:49.309Z,101279.66
2023-05-15T02:46:18.037Z,101270.28
2023-05-15T02:48:46.143Z,101287.19
2023-05-15T02:51:13.899Z,101278.63
2023-05-15T02:53:42.379Z,101283.00
2023-05-15T02:56:10.319Z,101282.81
2023-05-15T02:58:39.006Z,101275.38
2023-05-15T03:01:06.339Z,101273.84
2023-05-15T03:03:33.276Z,101265.28
2023-05-15T03:06:03.255Z,101272.59
2023-05-15T03:08:30.393Z,101265.50
2023-05-15T03:10:58.174Z,101273.88
2023-05-15T03:13:25.150Z,101250.75
2023-05-15T03:15:53.062Z,101270.47
2023-05-15T03:18:19.899Z,101258.84
2023-05-15T03:20:49.362Z,101265.16
2023-05-15T03:23:16.364Z,101270.25
2023-05-15T03:25:43.301Z,101267.94
2023-05-15T03:28:10.261Z,101266.31
2023-05-15T03:30:37.396Z,101256.97
2023-05-15T03:33:04.402Z,101254.91
2023-05-15T03:35:32.727Z,101256.53
2023-05-15T03:37:59.805Z,101258.50
2023-05-15T03:40:26.579Z,101252.94
2023-05-15T03:42:53.797Z,101254.06
2023-05-15T03:45:21.541Z,101256.16
2023-05-15T03:47:48.910Z,101248.75
2023-05-15T03:50:16.053Z,101245.44
2023-05-15T03:52:43.012Z,101243.16
2023-05-15T03:55:10.065Z,101239.50
2023-05-15T03:57:37.207Z,101241.78
2023-05-15T04:00:10.336Z,101237.47
2023-05-15T04:02:38.374Z,101240.44
2023-05-15T04:05:06.009Z,101240.66
2023-05-15T04:07:36.895Z,101238.34
2023-05-15T04:10:04.655Z,101242.59
2023-05-15T04:12:35.914Z,101223.53
2023-05-15T04:15:16.686Z,101230.47
2023-05-15T04:17:44.938Z,101228.25
2023-05-15T04:20:15.148Z,101239.88
2023-05-15T04:22:43.765Z,101232.91
2023-05-15T04:25:11.756Z,101239.22
2023-05-15T04:27:39.077Z,101215.47
2023-05-15T04:30:18.642Z,101229.91
2023-05-15T04:32:49.009Z,101217.88
2023-05-15T04:35:16.185Z,101219.41
2023-05-15T04:37:45.973Z,101203.56
2023-05-15T04:40:15.146Z,101216.06
2023-05-15T04:42:42.372Z,101217.72
2023-05-15T04:45:09.554Z,101213.84
2023-05-15T04:47:36.866Z,101201.81
2023-05-15T04:50:04.210Z,101209.00
2023-05-15T04:52:31.182Z,101201.31
2023-05-15T04:54:58.439Z,101211.34
2023-05-15T04:57:26.078Z,101196.47
2023-05-15T04:59:53.205Z,101199.28
2023-05-15T05:02:23.400Z,101205.66
2023-05-15T05:04:50.872Z,101203.31
2023-05-15T05:07:17.924Z,101204.19
2023-05-15T05:09:45.308Z,101200.84
2023-05-15T05:12:12.221Z,101201.50
2023-05-15T05:14:40.899Z,101197.84
2023-05-15T05:17:08.348Z,101192.16
2023-05-15T05:19:35.404Z,101188.75
2023-05-15T05:22:05.577Z,101189.88
2023-05-15T05:24:33.086Z,101185.75
2023-05-15T05:27:00.602Z,101187.75
2023-05-15T05:29:27.868Z,101184.38
2023-05-15T05:31:55.000Z,101190.38
2023-05-15T05:34:22.484Z,101187.06
2023-05-15T05:36:50.246Z,101183.69
2023-05-15T05:39:17.665Z,101181.22
2023-05-15T05:41:45.090Z,101187.66
2023-05-15T05:44:12.092Z,101171.59
2023-05-15T05:46:39.177Z,101183.16
2023-05-15T05:49:06.236Z,101179.38
2023-05-15T05:51:33.399Z,101186.19
2023-05-15T05:54:00.258Z,101185.09
2023-05-15T05:56:27.443Z,101180.66
2023-05-15T05:58:54.784Z,101178.06
2023-05-15T06:01:21.826Z,101174.06
2023-05-15T06:03:48.977Z,101176.25
2023-05-15T06:06:15.879Z,101174.94
2023-05-15T06:08:42.817Z,101177.75
2023-05-15T06:11:09.978Z,101173.88
2023-05-15T06:13:37.248Z,101168.41
2023-05-15T06:16:04.360Z,101167.78
2023-05-15T06:18:31.389Z,101168.09
2023-05-15T06:21:00.416Z,101166.00
2023-05-15T06:23:28.066Z,101159.03
2023-05-15T06:25:55.337Z,101171.78
2023-05-15T06:28:22.238Z,101167.91
2023-05-15T06:30:49.302Z,101162.44
2023-05-15T06:33:16.174Z,101165.84
2023-05-15T06:35:43.140Z,101159.22
2023-05-15T06:38:12.282Z,101161.41
2023-05-15T06:40:39.199Z,101159.56
2023-05-15T06:43:06.330Z,101165.41
2023-05-15T06:45:33.251Z,101154.69
2023-05-15T06:48:01.824Z,101144.66
2023-05-15T06:50:29.296Z,101151.63
2023-05-15T06:52:56.174Z,101151.69
2023-05-15T06:55:23.263Z,101150.22
2023-05-15T06:57:50.654Z,101153.66
2023-05-15T07:00:17.908Z,101147.72
2023-05-15T07:02:44.777Z,101107.22
2023-05-15T07:05:11.951Z,101146.88
2023-05-15T07:07:39.202Z,101141.16
2023-05-15T07:10:08.742Z,101136.94
2023-05-15T07:12:35.586Z,101135.56
2023-05-15T07:15:02.637Z,101136.84
2023-05-15T07:17:31.846Z,101133.22
2023-05-15T07:19:58.735Z,101114.88
2023-05-15T07:22:28.733Z,101121.53
2023-05-15T07:24:55.498Z,101118.59
2023-05-15T07:27:22.599Z,101115.88
2023-05-15T07:29:49.452Z,101110.56
2023-05-15T07:32:16.339Z,101101.06
2023-05-15T07:34:43.389Z,101102.28
2023-05-15T07:37:10.361Z,101101.66
2023-05-15T07:39:37.397Z,101092.03
2023-05-15T07:42:04.452Z,101100.69
2023-05-15T07:44:31.436Z,101105.91
2023-05-15T07:47:02.562Z,101099.31
2023-05-15T07:49:29.741Z,101096.03
2023-05-15T07:51:56.755Z,101104.91
2023-05-15T07:54:23.763Z,101084.88
2023-05-15T07:56:50.625Z,101090.72
2023-05-15T07:59:17.575Z,101084.28
2023-05-15T08:01:44.453Z,101091.00
2023-05-15T08:04:12.277Z,101085.03
2023-05-15T08:06:39.899Z,101075.53
2023-05-15T08:09:07.029Z,101084.31
2023-05-15T08:11:33.849Z,101083.06
2023-05-15T08:14:00.767Z,101070.78
2023-05-15T08:16:28.220Z,101046.63
2023-05-15T08:18:58.977Z,101063.47
2023-05-15T08:21:26.117Z,101058.53
2023-05-15T08:23:54.818Z,101060.34
2023-05-15T08:26:21.992Z,101058.63
2023-05-15T08:28:49.176Z,101060.66
2023-05-15T08:31:16.160Z,101057.41
2023-05-15T08:33:43.272Z,101056.44
2023-05-15T08:36:10.338Z,101058.78
2023-05-15T08:38:37.223Z,101051.78
2023-05-15T08:41:11.248Z,101047.59
2023-05-15T08:43:39.603Z,101045.94
2023-05-15T08:46:07.657Z,101030.13
2023-05-15T08:48:38.246Z,101041.47
2023-05-15T08:51:10.310Z,101035.03
2023-05-15T08:53:37.749Z,101039.53
2023-05-15T08:56:05.110Z,101033.25
2023-05-15T08:58:32.985Z,101036.78
2023-05-15T09:01:00.485Z,101036.41
2023-05-15T09:03:27.822Z,101032.59
2023-05-15T09:05:55.409Z,101032.00
2023-05-15T09:08:24.215Z,101027.84
2023-05-15T09:10:53.036Z,101017.41
2023-05-15T09:13:20.076Z,101013.31
2023-05-15T09:15:48.443Z,101017.88
2023-05-15T09:18:16.745Z,101010.38
2023-05-15T09:20:43.753Z,101016.28
2023-05-15T09:23:27.613Z,101012.97
2023-05-15T09:25:57.043Z,101004.75
2023-05-15T09:28:28.246Z,101007.34
2023-05-15T09:30:59.596Z,101006.41
2023-05-15T09:33:35.531Z,101004.56
2023-05-15T09:36:03.735Z,101006.38
2023-05-15T09:38:33.523Z,101005.34
2023-05-15T09:41:07.585Z,101005.69
2023-05-15T09:43:37.106Z,101003.91
2023-05-15T09:46:04.037Z,101002.69
2023-05-15T09:48:33.867Z,100995.94
2023-05-15T09:51:01.436Z,100992.31
2023-05-15T09:53:30.044Z,100996.06
2023-05-15T09:55:57.152Z,100983.47
2023-05-15T09:58:24.080Z,100982.13
2023-05-15T10:00:50.858Z,100987.88
2023-05-15T10:03:22.110Z,100988.03
2023-05-15T10:05:49.258Z,100980.28
2023-05-15T10:08:16.892Z,100980.63
2023-05-15T10:10:45.103Z,100969.53
2023-05-15T10:13:12.437Z,100964.69
2023-05-15T10:15:40.098Z,100966.34
2023-05-15T10:18:08.093Z,100966.69
2023-05-15T10:20:38.293Z,100963.69
2023-05-15T10:23:06.767Z,100967.91
2023-05-15T10:25:59.450Z,100972.41
2023-05-15T10:28:27.690Z,100957.59
2023-05-15T10:30:57.928Z,100965.88
2023-05-15T10:33:25.818Z,100961.16
2023-05-15T10:35:53.691Z,100952.38
2023-05-15T10:38:21.588Z,100946.56
2023-05-15T10:40:49.039Z,100948.34
2023-05-15T10:43:16.076Z,100952.28
2023-05-15T10:45:44.361Z,100943.25
2023-05-15T10:48:12.701Z,100946.63
2023-05-15T10:50:40.090Z,100937.16
2023-05-15T10:53:09.326Z,100945.81
2023-05-15T10:55:37.047Z,100934.81
2023-05-15T10:58:10.246Z,100931.06
2023-05-15T11:00:45.082Z,100933.09
2023-05-15T11:03:15.987Z,100930.28
2023-05-15T11:06:11.376Z,100934.38
2023-05-15T11:08:40.122Z,100931.38
2023-05-15T11:11:07.138Z,100942.72
2023-05-15T11:14:04.778Z,100928.78
2023-05-15T11:16:54.706Z,100921.69
2023-05-15T11:19:57.966Z,100925.16
2023-05-15T11:22:39.127Z,100920.97
2023-05-15T11:25:12.335Z,100919.00
2023-05-15T11:27:46.597Z,100917.16
2023-05-15T11:30:23.160Z,100913.59
2023-05-15T11:32:59.110Z,100919.09
2023-05-15T11:35:38.782Z,100909.88
2023-05-15T11:38:16.883Z,100911.88
2023-05-15T11:41:16.785Z,100908.25
2023-05-15T11:43:43.720Z,100914.53
2023-05-15T11:46:13.053Z,100906.88
2023-05-15T11:48:41.785Z,100918.66
2023-05-15T11:51:26.286Z,100921.63
2023-05-15T11:53:54.876Z,100932.44
2023-05-15T11:56:23.757Z,100923.47
2023-05-15T11:58:52.117Z,100923.91
2023-05-15T12:01:19.231Z,100918.78
2023-05-15T12:03:49.314Z,100919.28
2023-05-15T12:06:16.983Z,100924.19
2023-05-15T12:08:44.388Z,100925.41
2023-05-15T12:11:13.536Z,100925.09
2023-05-15T12:13:40.622Z,100932.28
2023-05-15T12:16:07.668Z,100924.59
2023-05-15T12:18:35.002Z,100929.34
2023-05-15T12:21:02.132Z,100936.63
2023-05-15T12:23:29.089Z,100935.66
2023-05-15T12:26:01.143Z,100936.19
2023-05-15T12:28:29.517Z,100920.50
2023-05-15T12:30:57.750Z,100936.50
2023-05-15T12:33:25.291Z,100935.75
2023-05-15T12:35:59.935Z,100924.34
2023-05-15T12:38:29.161Z,100939.41
2023-05-15T12:40:57.413Z,100935.72
2023-05-15T12:43:26.215Z,100930.69
2023-05-15T12:45:54.857Z,100936.38
2023-05-15T12:48:22.545Z,100939.31
2023-05-15T12:50:50.419Z,100940.50
2023-05-15T12:53:18.124Z,100941.56
2023-05-15T12:55:47.080Z,100940.03
2023-05-15T12:58:16.084Z,100933.44
2023-05-15T13:00:46.479Z,100937.28
2023-05-15T13:03:14.315Z,100899.47
2023-05-15T13:05:46.003Z,100937.63
2023-05-15T13:08:18.162Z,100935.72
2023-05-15T13:10:46.557Z,100937.88
2023-05-15T13:13:13.973Z,100941.34
2023-05-15T13:15:43.933Z,100942.25
2023-05-15T13:18:15.749Z,100939.06
2023-05-15T13:20:43.828Z,100941.28
2023-05-15T13:23:12.414Z,100948.84
2023-05-15T13:25:39.261Z,100939.34
2023-05-15T13:28:07.716Z,100949.34
2023-05-15T13:30:35.865Z,100946.19
2023-05-15T13:33:03.175Z,100948.19
2023-05-15T13:35:30.198Z,100967.19
2023-05-15T13:37:57.526Z,100966.38
2023-05-15T13:40:24.789Z,100955.72
2023-05-15T13:42:51.872Z,100963.44
2023-05-15T13:45:19.082Z,100967.75
2023-05-15T13:47:46.103Z,100976.78
2023-05-15T13:50:15.422Z,100969.53
2023-05-15T13:52:43.973Z,100976.28
2023-05-15T13:55:11.606Z,100968.53
2023-05-15T13:57:42.851Z,100973.69
2023-05-15T14:00:15.295Z,100970.03
2023-05-15T14:02:44.008Z,100970.94
2023-05-15T14:05:13.113Z,100974.09
2023-05-15T14:07:40.692Z,100968.88
2023-05-15T14:10:08.483Z,100975.44
2023-05-15T14:12:36.274Z,100959.63
2023-05-15T14:15:03.423Z,100964.66
2023-05-15T14:17:32.620Z,100973.59
2023-05-15T14:19:59.597Z,100968.53
2023-05-15T14:22:26.593Z,100976.03
2023-05-15T14:24:53.724Z,100968.22
2023-05-15T14:27:21.156Z,100964.63
2023-05-15T14:29:49.454Z,100966.09
2023-05-15T14:32:17.385Z,100955.63
2023-05-15T14:34:44.654Z,100965.41
2023-05-15T14:37:11.862Z,100972.03
2023-05-15T14:39:39.086Z,100966.38
2023-05-15T14:42:06.616Z,100969.03
2023-05-15T14:44:34.294Z,100962.22
2023-05-15T14:47:10.590Z,100963.56
2023-05-15T14:49:37.981Z,100963.03
2023-05-15T14:52:07.552Z,100962.09
2023-05-15T14:54:35.984Z,100956.59
2023-05-15T14:57:03.861Z,100963.84
2023-05-15T14:59:31.567Z,100971.44
2023-05-15T15:01:58.731Z,100967.31
2023-05-15T15:04:26.924Z,100956.31
2023-05-15T15:06:57.181Z,100965.72
2023-05-15T15:09:26.414Z,100955.94
2023-05-15T15:11:54.673Z,100963.03
2023-05-15T15:14:21.554Z,100965.81
2023-05-15T15:16:48.659Z,100953.41
2023-05-15T15:19:18.186Z,100963.88
2023-05-15T15:21:46.960Z,100959.25
2023-05-15T15:24:14.011Z,100958.09
2023-05-15T15:26:41.532Z,100968.97
2023-05-15T15:29:08.585Z,100974.00
2023-05-15T15:31:35.981Z,100974.81
2023-05-15T15:34:05.302Z,100929.34
2023-05-15T15:36:33.080Z,100967.16
2023-05-15T15:38:59.968Z,100978.94
2023-05-15T15:41:29.968Z,100978.94
2023-05-15T15:43:56.875Z,100986.72
2023-05-15T15:46:23.833Z,100984.66
2023-05-15T15:48:51.238Z,100976.13
2023-05-15T15:51:18.154Z,100981.75
2023-05-15T15:53:45.313Z,100983.69
2023-05-15T15:56:12.192Z,100979.59
2023-05-15T15:58:39.011Z,100983.56
2023-05-15T16:01:06.141Z,100972.91
2023-05-15T16:03:33.691Z,100977.81
2023-05-15T16:06:00.700Z,100981.00
2023-05-15T16:08:27.981Z,100987.00
2023-05-15T16:10:55.311Z,100995.50
2023-05-15T16:13:22.316Z,100982.53
2023-05-15T16:15:49.297Z,100993.41
2023-05-15T16:18:16.992Z,100995.72
2023-05-15T16:20:44.031Z,100999.66
2023-05-15T16:23:15.217Z,101002.31
2023-05-15T16:25:45.471Z,101007.94
2023-05-15T16:28:12.398Z,101004.25
2023-05-15T16:30:48.822Z,101014.56
2023-05-15T16:33:18.234Z,101032.50
2023-05-15T16:35:46.002Z,101033.75
2023-05-15T16:38:13.643Z,101032.22
2023-05-15T16:40:40.881Z,101033.28
2023-05-15T16:43:08.027Z,101029.06
2023-05-15T16:45:35.072Z,101028.97
2023-05-15T16:48:02.197Z,101040.44
2023-05-15T16:50:31.295Z,101036.34
2023-05-15T16:52:58.426Z,101028.88
2023-05-15T16:55:25.550Z,101045.19
2023-05-15T16:57:52.407Z,101032.00
2023-05-15T17:00:21.308Z,101040.59
2023-05-15T17:02:49.069Z,101032.97
2023-05-15T17:05:16.794Z,101041.72
2023-05-15T17:07:44.814Z,101039.47
2023-05-15T17:10:12.668Z,101049.19
2023-05-15T17:12:40.115Z,101052.91
2023-05-15T17:15:08.004Z,101054.09
2023-05-15T17:17:35.310Z,101060.81
2023-05-15T17:20:03.254Z,101054.56
2023-05-15T17:22:30.718Z,101065.81
2023-05-15T17:24:58.088Z,101053.38
2023-05-15T17:27:25.304Z,101066.41
2023-05-15T17:29:52.457Z,101066.28
2023-05-15T17:32:19.761Z,101066.03
2023-05-15T17:34:47.336Z,101079.47
2023-05-15T17:37:14.653Z,101078.34
2023-05-15T17:39:42.155Z,101084.19
2023-05-15T17:42:08.984Z,101087.72
2023-05-15T17:44:35.824Z,101097.06
2023-05-15T17:47:02.841Z,101110.66
2023-05-15T17:49:30.056Z,101100.97
2023-05-15T17:51:57.137Z,101118.81
2023-05-15T17:54:24.367Z,101115.50
2023-05-15T17:56:51.466Z,101116.25
2023-05-15T17:59:18.297Z,101126.38
2023-05-15T18:01:45.530Z,101133.50
2023-05-15T18:04:12.557Z,101137.81
2023-05-15T18:06:39.514Z,101112.19
2023-05-15T18:09:06.608Z,101136.75
2023-05-15T18:11:33.625Z,101145.31
2023-05-15T18:14:00.641Z,101147.06
2023-05-15T18:16:28.359Z,101149.91
2023-05-15T18:18:55.994Z,101156.44
2023-05-15T18:21:22.957Z,101161.47
2023-05-15T18:23:50.123Z,101166.25
2023-05-15T18:26:17.292Z,101170.09
2023-05-15T18:28:44.249Z,101163.03
2023-05-15T18:31:11.245Z,101169.41
2023-05-15T18:33:39.796Z,101171.16
2023-05-15T18:36:07.737Z,101162.03
2023-05-15T18:38:35.034Z,101162.22
2023-05-15T18:41:03.170Z,101165.44
2023-05-15T18:43:30.133Z,101167.44
2023-05-15T18:45:57.199Z,101174.56
2023-05-15T18:48:24.174Z,101169.44
2023-05-15T18:50:53.091Z,101176.50
2023-05-15T18:53:22.082Z,101176.50
2023-05-15T18:55:49.263Z,101175.34
2023-05-15T18:58:16.304Z,101179.97
2023-05-15T19:00:43.373Z,101183.25
2023-05-15T19:03:11.072Z,101187.34
2023-05-15T19:05:38.160Z,101195.25
2023-05-15T19:08:05.312Z,101190.13
2023-05-15T19:10:32.280Z,101204.63
2023-05-15T19:12:59.053Z,101205.25
2023-05-15T19:15:26.729Z,101219.06
2023-05-15T19:17:53.651Z,101209.06
2023-05-15T19:20:21.147Z,101214.63
2023-05-15T19:22:48.442Z,101223.38
2023-05-15T19:25:15.485Z,101229.31
2023-05-15T19:27:42.499Z,101230.28
2023-05-15T19:30:10.218Z,101240.28
2023-05-15T19:32:37.439Z,101228.97
2023-05-15T19:35:05.867Z,101243.88
2023-05-15T19:37:32.722Z,101243.63
2023-05-15T19:39:59.524Z,101251.59
2023-05-15T19:42:26.785Z,101241.91
2023-05-15T19:44:53.755Z,101252.44
2023-05-15T19:47:21.072Z,101253.59
2023-05-15T19:49:48.056Z,101250.00
2023-05-15T19:52:16.536Z,101256.00
2023-05-15T19:54:44.369Z,101258.16
2023-05-15T19:57:11.399Z,101264.75
2023-05-15T19:59:38.404Z,101260.81
2023-05-15T20:02:09.370Z,101258.56
2023-05-15T20:04:37.289Z,101258.25
2023-05-15T20:07:04.556Z,101251.47
2023-05-15T20:09:31.400Z,101264.25
2023-05-15T20:11:58.536Z,101253.06
2023-05-15T20:14:25.490Z,101263.25
2023-05-15T20:16:53.530Z,101260.63
2023-05-15T20:19:23.364Z,101269.75
2023-05-15T20:21:52.876Z,101271.47
2023-05-15T20:24:19.875Z,101264.03
2023-05-15T20:26:46.662Z,101270.34
2023-05-15T20:29:13.709Z,101266.25
2023-05-15T20:31:40.781Z,101267.66
2023-05-15T20:34:08.695Z,101276.41
2023-05-15T20:36:39.023Z,101270.72
2023-05-15T20:39:07.666Z,101272.03
2023-05-15T20:41:34.792Z,101269.56
2023-05-15T20:44:01.903Z,101267.03
2023-05-15T20:46:30.236Z,101266.84
2023-05-15T20:48:57.784Z,101278.97
2023-05-15T20:51:25.037Z,101274.53
2023-05-15T20:53:52.012Z,101268.22
2023-05-15T20:56:19.310Z,101275.31
2023-05-15T20:58:46.637Z,101261.09
2023-05-15T21:01:13.831Z,101218.03
2023-05-15T21:03:41.199Z,101268.31
2023-05-15T21:06:08.994Z,101267.91
2023-05-15T21:08:36.131Z,101260.59
2023-05-15T21:11:02.971Z,101270.28
2023-05-15T21:13:29.972Z,101255.50
2023-05-15T21:15:56.866Z,101272.41
2023-05-15T21:18:24.069Z,101272.63
2023-05-15T21:20:51.128Z,101270.09
2023-05-15T21:23:18.450Z,101273.50
2023-05-15T21:25:45.441Z,101256.50
2023-05-15T21:28:12.295Z,101264.16
2023-05-15T21:30:39.338Z,101276.06
2023-05-15T21:33:06.546Z,101278.53
2023-05-15T21:35:33.493Z,101273.78
2023-05-15T21:38:00.714Z,101287.47
2023-05-15T21:40:28.000Z,101286.06
2023-05-15T21:42:54.877Z,101279.28
2023-05-15T21:45:22.110Z,101303.28
2023-05-15T21:47:49.730Z,101302.88
2023-05-15T21:50:16.549Z,101291.00
2023-05-15T21:52:46.275Z,101302.09
2023-05-15T21:55:13.128Z,101301.28
2023-05-15T21:57:39.917Z,101307.53
2023-05-15T22:00:08.604Z,101306.19
2023-05-15T22:02:37.055Z,101306.06
2023-05-15T22:05:04.765Z,101297.34
2023-05-15T22:07:31.728Z,101307.03
2023-05-15T22:09:58.598Z,101302.31
2023-05-15T22:12:25.443Z,101314.25
2023-05-15T22:14:58.987Z,101311.91
2023-05-15T22:17:29.394Z,101304.56
2023-05-15T22:20:07.096Z,101319.84
2023-05-15T22:22:35.252Z,101311.34
2023-05-15T22:25:02.448Z,101310.66
2023-05-15T22:27:29.354Z,101314.66
2023-05-15T22:29:56.594Z,101301.72
2023-05-15T22:32:23.640Z,101313.22
2023-05-15T22:34:50.690Z,101314.97
2023-05-15T22:37:17.478Z,101308.34
2023-05-15T22:39:44.574Z,101317.16
2023-05-15T22:42:11.589Z,101316.38
2023-05-15T22:44:38.497Z,101323.03
2023-05-15T22:47:05.690Z,101320.22
2023-05-15T22:49:32.498Z,101322.34
2023-05-15T22:51:59.742Z,101330.41
2023-05-15T22:54:26.667Z,101308.84
2023-05-15T22:56:54.348Z,101324.69
2023-05-15T22:59:21.475Z,101326.19
2023-05-15T23:01:49.422Z,101329.13
2023-05-15T23:04:17.710Z,101317.31
2023-05-15T23:06:44.946Z,101329.19
2023-05-15T23:09:12.086Z,101320.31
2023-05-15T23:11:39.089Z,101322.34
2023-05-15T23:14:07.529Z,101312.06
2023-05-15T23:16:34.478Z,101296.03
2023-05-15T23:19:01.731Z,101307.31
2023-05-15T23:21:28.834Z,101301.16
2023-05-15T23:23:55.798Z,101267.94
2023-05-15T23:26:22.690Z,101318.41
2023-05-15T23:28:50.255Z,101312.88
2023-05-15T23:31:17.394Z,101312.69
2023-05-15T23:33:44.367Z,101317.00
2023-05-15T23:36:11.264Z,101318.34
2023-05-15T23:38:38.698Z,101303.59
2023-05-15T23:41:06.018Z,101317.75
2023-05-15T23:43:32.940Z,101318.75
2023-05-15T23:45:59.844Z,101308.44
2023-05-15T23:48:26.754Z,101301.41
2023-05-15T23:50:53.719Z,101308.69
2023-05-15T23:53:20.960Z,101297.19
2023-05-15T23:55:48.021Z,101302.34
2023-05-15T23:58:14.968Z,101297.53
